9

www.moto.it

MX 2018. Herlings e Prado si aggiudicano le qualifiche del GP del Portogallo

9
...

Attenzione: la versione di Internet Explorer che stai utilizzando non permette una corretta visualizzazione.
Moto.it è ottimizzato per Internet Explorer 9 o superiore, oppure puoi utilizzare altri browser come Chrome, Firefox o Safari.

  • Accedi o registrati
  • Concessionari

MX 2018. Herlings e Prado si aggiudicano le qualifiche del GP del Portogallo

Herlings vince la manche di qualifica davanti a Cairoli e Febvre. In MX2 trionfa Prado.
 

CLASSIFICHE

MXGP - Qualifying Race - Classification

Pos Nr Rider Nat. Fed. Bike Time laps Diff. First Diff. Prev. Bestlaptime in lap Speed
1 84 Herlings, Jeffrey NED KNMV KTM 24:36.707 12 0:00.000 0:00.000 1:53.343 2 51.7
2 222 Cairoli, Antonio ITA FMI KTM 24:38.248 12 0:01.541 0:01.541 1:53.165 3 51.8
3 461 Febvre, Romain FRA FFM Yamaha 24:41.468 12 0:04.761 0:03.220 1:53.638 1 51.6
4 243 Gajser, Tim SLO AMZS Honda 24:44.882 12 0:08.175 0:03.414 1:53.566 3 51.6
5 25 Desalle, Clement BEL FMB Kawasaki 25:01.529 12 0:24.822 0:16.647 1:54.045 2 51.4
6 21 Paulin, Gautier FRA MCM Husqvarna 25:04.368 12 0:27.661 0:02.839 1:54.569 3 51.2
7 91 Seewer, Jeremy SUI FMS Yamaha 25:18.762 12 0:42.055 0:14.394 1:55.664 2 50.7
8 777 Bobryshev, Evgeny RUS MFR Suzuki 25:28.730 12 0:52.023 0:09.968 1:54.924 4 51
9 259 Coldenhoff, Glenn NED KNMV KTM 25:30.753 12 0:54.046 0:02.023 1:55.935 3 50.6
10 27 Jasikonis, Arminas LTU LMSF Honda 25:36.442 12 0:59.735 0:05.689 1:57.090 3 50.1
11 24 Simpson, Shaun GBR ACU Yamaha 25:46.121 12 1:09.414 0:09.679 1:57.401 5 49.9
12 77 Lupino, Alessandro ITA FMI Kawasaki 25:47.410 12 1:10.703 0:01.289 1:58.043 6 49.7
13 141 Desprey, Maxime FRA FFM Kawasaki 25:48.422 12 1:11.715 0:01.012 1:58.149 3 49.6
14 33 Lieber, Julien BEL FMB Kawasaki 25:49.791 12 1:13.084 0:01.369 1:55.577 3 50.7
15 12 Nagl, Maximilian GER DMSB TM 25:54.913 12 1:18.206 0:05.122 1:57.893 4 49.7
16 22 Strijbos, Kevin BEL FMB KTM 25:58.811 12 1:22.104 0:03.898 1:58.036 4 49.7
17 17 Butron, Jose ESP RFME KTM 25:59.907 12 1:23.200 0:01.096 1:59.022 1 49.3
18 152 Petrov, Petar BUL BMF Honda 26:13.232 12 1:36.525 0:13.325 2:00.341 5 48.7
19 7 Leok, Tanel EST EMF Husqvarna 26:26.510 12 1:49.803 0:13.278 2:00.843 7 48.5
20 999 Goncalves, Rui POR FMP Yamaha 26:34.032 12 1:57.325 0:07.522 2:01.566 6 48.2

MX2 - Qualifying Race - Classification

Pos Nr Rider Nat. Fed. Bike Time laps Diff. First Diff. Prev. Bestlaptime in lap Speed
1 61 Prado, Jorge ESP RFME KTM 24:47.557 12 0:00.000 0:00.000 1:51.944 3 52.4
2 19 Olsen, Thomas Kjer DEN DMU Husqvarna 24:50.726 12 0:03.169 0:03.169 1:53.465 4 51.7
3 14 Beaton, Jed AUS MA Kawasaki 24:52.698 12 0:05.141 0:01.972 1:53.966 3 51.4
4 1 Jonass, Pauls LAT LAMSF KTM 24:55.567 12 0:08.010 0:02.869 1:53.586 2 51.6
5 919 Watson, Ben GBR ACU Yamaha 24:56.387 12 0:08.830 0:00.820 1:53.800 3 51.5
6 10 Vlaanderen, Calvin RSA KNMV Honda 25:07.347 12 0:19.790 0:10.960 1:54.822 1 51.1
7 747 Cervellin, Michele ITA FMI Honda 25:25.168 12 0:37.611 0:17.821 1:56.716 3 50.2
8 172 Van doninck, Brent BEL FMB Husqvarna 25:25.589 12 0:38.032 0:00.421 1:56.972 8 50.1
9 161 Östlund, Alvin SWE SVEMO Yamaha 25:25.610 12 0:38.053 0:00.021 1:56.764 4 50.2
10 18 Brylyakov, Vsevolod RUS MFR Yamaha 25:27.139 12 0:39.582 0:01.529 1:56.522 3 50.3
11 118 Rubini, Stephen FRA FFM KTM 25:36.139 12 0:48.582 0:09.000 1:57.403 7 49.9
12 321 Bernardini, Samuele ITA FMI TM 25:40.350 12 0:52.793 0:04.211 1:57.486 2 49.9
13 64 Covington, Thomas USA MUL Husqvarna 25:41.448 12 0:53.891 0:01.098 1:56.202 4 50.4
14 98 Vaessen, Bas NED KNMV Honda 25:45.649 12 0:58.092 0:04.201 1:57.564 2 49.9
15 29 Jacobi, Henry GER DMSB Husqvarna 25:48.208 12 1:00.651 0:02.559 1:57.184 4 50
16 338 Herbreteau, David FRA FFM KTM 25:49.970 12 1:02.413 0:01.762 1:58.224 1 49.6
17 95 Furlotti, Simone ITA FMI Yamaha 25:51.190 12 1:03.633 0:01.220 1:57.843 1 49.7
18 426 Mewse, Conrad GBR ACU KTM 25:52.620 12 1:05.063 0:01.430 1:57.246 3 50
19 811 Sterry, Adam GBR ACU Kawasaki 25:53.983 12 1:06.426 0:01.363 1:54.973 1 51
20 193 Geerts, Jago BEL FMB Yamaha 25:55.190 12 1:07.633 0:01.207 1:58.555 3 49.4